sensor_id;sensor_type;location;lat;lon;timestamp;P1;durP1;ratioP1;P2;durP2;ratioP2
22236;SDS011;11287;48.122;11.536;2024-01-11T00:00:22;58.72;;;17.70;;
22236;SDS011;11287;48.122;11.536;2024-01-11T00:02:47;50.40;;;17.23;;
22236;SDS011;11287;48.122;11.536;2024-01-11T00:05:13;47.78;;;16.38;;
22236;SDS011;11287;48.122;11.536;2024-01-11T00:07:38;55.83;;;18.80;;
22236;SDS011;11287;48.122;11.536;2024-01-11T00:10:03;56.35;;;17.08;;
22236;SDS011;11287;48.122;11.536;2024-01-11T00:12:29;50.25;;;16.92;;
22236;SDS011;11287;48.122;11.536;2024-01-11T00:14:54;58.97;;;17.95;;
22236;SDS011;11287;48.122;11.536;2024-01-11T00:17:20;60.47;;;18.50;;
22236;SDS011;11287;48.122;11.536;2024-01-11T00:19:45;67.18;;;19.17;;
22236;SDS011;11287;48.122;11.536;2024-01-11T00:22:10;53.58;;;16.23;;
22236;SDS011;11287;48.122;11.536;2024-01-11T00:24:36;52.55;;;17.27;;
22236;SDS011;11287;48.122;11.536;2024-01-11T00:27:01;59.17;;;19.77;;
22236;SDS011;11287;48.122;11.536;2024-01-11T00:29:26;55.38;;;18.92;;
22236;SDS011;11287;48.122;11.536;2024-01-11T00:31:53;47.45;;;14.75;;
22236;SDS011;11287;48.122;11.536;2024-01-11T00:34:18;57.80;;;18.13;;
22236;SDS011;11287;48.122;11.536;2024-01-11T00:36:43;54.50;;;18.05;;
22236;SDS011;11287;48.122;11.536;2024-01-11T00:39:09;48.53;;;15.98;;
22236;SDS011;11287;48.122;11.536;2024-01-11T00:41:35;44.50;;;16.42;;
22236;SDS011;11287;48.122;11.536;2024-01-11T00:44:00;36.47;;;13.88;;
22236;SDS011;11287;48.122;11.536;2024-01-11T00:46:25;44.85;;;15.18;;
22236;SDS011;11287;48.122;11.536;2024-01-11T00:48:50;46.33;;;16.02;;
22236;SDS011;11287;48.122;11.536;2024-01-11T00:51:16;42.03;;;15.27;;
22236;SDS011;11287;48.122;11.536;2024-01-11T00:53:41;44.00;;;14.90;;
22236;SDS011;11287;48.122;11.536;2024-01-11T00:56:15;44.33;;;14.15;;
22236;SDS011;11287;48.122;11.536;2024-01-11T00:58:41;44.25;;;15.65;;
22236;SDS011;11287;48.122;11.536;2024-01-11T01:01:08;50.60;;;14.20;;
22236;SDS011;11287;48.122;11.536;2024-01-11T01:03:34;49.03;;;14.30;;
22236;SDS011;11287;48.122;11.536;2024-01-11T01:06:00;44.55;;;15.75;;
22236;SDS011;11287;48.122;11.536;2024-01-11T01:08:26;50.15;;;16.27;;
22236;SDS011;11287;48.122;11.536;2024-01-11T01:10:51;49.78;;;16.45;;
22236;SDS011;11287;48.122;11.536;2024-01-11T01:13:17;53.58;;;15.57;;
22236;SDS011;11287;48.122;11.536;2024-01-11T01:15:42;59.83;;;18.63;;
22236;SDS011;11287;48.122;11.536;2024-01-11T01:18:07;51.58;;;17.63;;
22236;SDS011;11287;48.122;11.536;2024-01-11T01:20:33;58.17;;;18.48;;
22236;SDS011;11287;48.122;11.536;2024-01-11T01:22:58;53.80;;;16.63;;
22236;SDS011;11287;48.122;11.536;2024-01-11T01:25:23;60.38;;;18.52;;
22236;SDS011;11287;48.122;11.536;2024-01-11T01:27:48;51.88;;;16.15;;
22236;SDS011;11287;48.122;11.536;2024-01-11T01:30:14;48.15;;;15.65;;
22236;SDS011;11287;48.122;11.536;2024-01-11T01:32:39;59.63;;;18.77;;
22236;SDS011;11287;48.122;11.536;2024-01-11T01:35:04;47.78;;;16.42;;
22236;SDS011;11287;48.122;11.536;2024-01-11T01:37:30;40.78;;;13.10;;
22236;SDS011;11287;48.122;11.536;2024-01-11T01:39:55;50.53;;;15.07;;
22236;SDS011;11287;48.122;11.536;2024-01-11T01:42:21;49.35;;;16.45;;
22236;SDS011;11287;48.122;11.536;2024-01-11T01:44:46;44.83;;;14.65;;
22236;SDS011;11287;48.122;11.536;2024-01-11T01:47:11;52.00;;;15.32;;
22236;SDS011;11287;48.122;11.536;2024-01-11T01:49:37;40.92;;;13.80;;
22236;SDS011;11287;48.122;11.536;2024-01-11T01:52:03;42.90;;;16.23;;
22236;SDS011;11287;48.122;11.536;2024-01-11T01:54:28;49.67;;;16.05;;
22236;SDS011;11287;48.122;11.536;2024-01-11T01:56:54;37.63;;;11.55;;
22236;SDS011;11287;48.122;11.536;2024-01-11T01:59:20;50.28;;;15.88;;
22236;SDS011;11287;48.122;11.536;2024-01-11T02:01:46;33.50;;;12.57;;
22236;SDS011;11287;48.122;11.536;2024-01-11T02:04:11;46.65;;;14.88;;
22236;SDS011;11287;48.122;11.536;2024-01-11T02:06:37;43.22;;;13.85;;
22236;SDS011;11287;48.122;11.536;2024-01-11T02:09:02;46.60;;;13.65;;
22236;SDS011;11287;48.122;11.536;2024-01-11T02:11:28;51.55;;;16.63;;
22236;SDS011;11287;48.122;11.536;2024-01-11T02:13:54;42.83;;;12.43;;
22236;SDS011;11287;48.122;11.536;2024-01-11T02:16:20;54.60;;;15.68;;
22236;SDS011;11287;48.122;11.536;2024-01-11T02:18:45;50.28;;;15.73;;
22236;SDS011;11287;48.122;11.536;2024-01-11T02:21:11;44.97;;;15.45;;
22236;SDS011;11287;48.122;11.536;2024-01-11T02:23:44;46.13;;;15.38;;
22236;SDS011;11287;48.122;11.536;2024-01-11T02:26:14;44.15;;;14.80;;
22236;SDS011;11287;48.122;11.536;2024-01-11T02:28:43;34.53;;;12.98;;
22236;SDS011;11287;48.122;11.536;2024-01-11T02:31:09;46.03;;;14.13;;
22236;SDS011;11287;48.122;11.536;2024-01-11T02:33:35;42.63;;;14.10;;
22236;SDS011;11287;48.122;11.536;2024-01-11T02:36:01;34.83;;;12.43;;
22236;SDS011;11287;48.122;11.536;2024-01-11T02:38:26;40.30;;;13.00;;
22236;SDS011;11287;48.122;11.536;2024-01-11T02:40:52;36.63;;;12.32;;
22236;SDS011;11287;48.122;11.536;2024-01-11T02:43:18;39.58;;;14.50;;
22236;SDS011;11287;48.122;11.536;2024-01-11T02:45:43;44.78;;;14.10;;
22236;SDS011;11287;48.122;11.536;2024-01-11T02:48:08;43.67;;;14.43;;
22236;SDS011;11287;48.122;11.536;2024-01-11T02:50:34;39.22;;;12.43;;
22236;SDS011;11287;48.122;11.536;2024-01-11T02:52:59;40.90;;;12.30;;
22236;SDS011;11287;48.122;11.536;2024-01-11T02:55:24;37.15;;;12.32;;
22236;SDS011;11287;48.122;11.536;2024-01-11T02:57:49;40.50;;;13.75;;
22236;SDS011;11287;48.122;11.536;2024-01-11T03:00:15;46.33;;;13.32;;
22236;SDS011;11287;48.122;11.536;2024-01-11T03:02:40;50.45;;;14.75;;
22236;SDS011;11287;48.122;11.536;2024-01-11T03:05:05;41.20;;;13.40;;
22236;SDS011;11287;48.122;11.536;2024-01-11T03:07:31;40.67;;;13.52;;
22236;SDS011;11287;48.122;11.536;2024-01-11T03:09:57;46.08;;;14.63;;
22236;SDS011;11287;48.122;11.536;2024-01-11T03:12:22;42.45;;;14.25;;
22236;SDS011;11287;48.122;11.536;2024-01-11T03:14:48;36.72;;;13.82;;
22236;SDS011;11287;48.122;11.536;2024-01-11T03:17:13;46.08;;;14.20;;
22236;SDS011;11287;48.122;11.536;2024-01-11T03:19:39;46.97;;;14.40;;
22236;SDS011;11287;48.122;11.536;2024-01-11T03:22:05;26.13;;;11.23;;
22236;SDS011;11287;48.122;11.536;2024-01-11T03:24:31;40.45;;;12.18;;
22236;SDS011;11287;48.122;11.536;2024-01-11T03:26:57;31.85;;;12.23;;
22236;SDS011;11287;48.122;11.536;2024-01-11T03:29:22;31.52;;;11.43;;
22236;SDS011;11287;48.122;11.536;2024-01-11T03:31:47;36.47;;;11.77;;
22236;SDS011;11287;48.122;11.536;2024-01-11T03:34:13;43.92;;;14.05;;
22236;SDS011;11287;48.122;11.536;2024-01-11T03:36:38;34.70;;;12.15;;
22236;SDS011;11287;48.122;11.536;2024-01-11T03:39:03;38.15;;;14.00;;
22236;SDS011;11287;48.122;11.536;2024-01-11T03:41:29;40.20;;;15.02;;
22236;SDS011;11287;48.122;11.536;2024-01-11T03:43:54;41.25;;;14.38;;
22236;SDS011;11287;48.122;11.536;2024-01-11T03:46:19;42.10;;;13.50;;
22236;SDS011;11287;48.122;11.536;2024-01-11T03:48:45;41.38;;;14.57;;
22236;SDS011;11287;48.122;11.536;2024-01-11T03:51:10;44.65;;;14.95;;
22236;SDS011;11287;48.122;11.536;2024-01-11T03:53:36;41.72;;;13.98;;
22236;SDS011;11287;48.122;11.536;2024-01-11T03:56:01;37.50;;;13.73;;
22236;SDS011;11287;48.122;11.536;2024-01-11T03:58:27;40.90;;;12.85;;
22236;SDS011;11287;48.122;11.536;2024-01-11T04:00:52;46.92;;;15.73;;
22236;SDS011;11287;48.122;11.536;2024-01-11T04:03:18;48.10;;;15.25;;
22236;SDS011;11287;48.122;11.536;2024-01-11T04:05:43;44.55;;;15.30;;
22236;SDS011;11287;48.122;11.536;2024-01-11T04:08:08;44.92;;;14.10;;
22236;SDS011;11287;48.122;11.536;2024-01-11T04:10:33;41.95;;;13.27;;
22236;SDS011;11287;48.122;11.536;2024-01-11T04:12:59;45.00;;;15.15;;
22236;SDS011;11287;48.122;11.536;2024-01-11T04:15:24;49.80;;;14.68;;
22236;SDS011;11287;48.122;11.536;2024-01-11T04:17:50;44.53;;;14.25;;
22236;SDS011;11287;48.122;11.536;2024-01-11T04:20:15;46.50;;;15.48;;
22236;SDS011;11287;48.122;11.536;2024-01-11T04:22:40;46.67;;;15.68;;
22236;SDS011;11287;48.122;11.536;2024-01-11T04:25:06;49.55;;;15.65;;
22236;SDS011;11287;48.122;11.536;2024-01-11T04:27:32;50.40;;;16.05;;
22236;SDS011;11287;48.122;11.536;2024-01-11T04:29:57;50.35;;;14.70;;
22236;SDS011;11287;48.122;11.536;2024-01-11T04:32:22;47.58;;;16.08;;
22236;SDS011;11287;48.122;11.536;2024-01-11T04:34:48;44.17;;;14.15;;
22236;SDS011;11287;48.122;11.536;2024-01-11T04:37:13;44.53;;;14.90;;
22236;SDS011;11287;48.122;11.536;2024-01-11T04:39:38;52.08;;;15.23;;
22236;SDS011;11287;48.122;11.536;2024-01-11T04:42:04;48.10;;;16.20;;
22236;SDS011;11287;48.122;11.536;2024-01-11T04:44:29;49.17;;;15.75;;
22236;SDS011;11287;48.122;11.536;2024-01-11T04:46:54;49.15;;;16.58;;
22236;SDS011;11287;48.122;11.536;2024-01-11T04:49:20;43.92;;;13.65;;
22236;SDS011;11287;48.122;11.536;2024-01-11T04:51:45;41.30;;;14.88;;
22236;SDS011;11287;48.122;11.536;2024-01-11T04:54:10;49.08;;;15.80;;
22236;SDS011;11287;48.122;11.536;2024-01-11T04:56:36;46.50;;;14.57;;
22236;SDS011;11287;48.122;11.536;2024-01-11T04:59:01;49.95;;;15.07;;
22236;SDS011;11287;48.122;11.536;2024-01-11T05:01:26;46.40;;;15.15;;
22236;SDS011;11287;48.122;11.536;2024-01-11T05:03:51;43.25;;;14.23;;
22236;SDS011;11287;48.122;11.536;2024-01-11T05:06:18;45.67;;;14.70;;
22236;SDS011;11287;48.122;11.536;2024-01-11T05:08:45;44.05;;;14.63;;
22236;SDS011;11287;48.122;11.536;2024-01-11T05:11:17;46.97;;;15.23;;
22236;SDS011;11287;48.122;11.536;2024-01-11T05:13:43;43.08;;;13.88;;
22236;SDS011;11287;48.122;11.536;2024-01-11T05:16:23;44.40;;;15.77;;
22236;SDS011;11287;48.122;11.536;2024-01-11T05:18:50;47.35;;;15.52;;
22236;SDS011;11287;48.122;11.536;2024-01-11T05:21:16;42.35;;;15.85;;
22236;SDS011;11287;48.122;11.536;2024-01-11T05:23:42;45.85;;;16.25;;
22236;SDS011;11287;48.122;11.536;2024-01-11T05:26:07;38.72;;;15.88;;
22236;SDS011;11287;48.122;11.536;2024-01-11T05:28:33;42.60;;;14.93;;
22236;SDS011;11287;48.122;11.536;2024-01-11T05:30:59;40.90;;;13.90;;
22236;SDS011;11287;48.122;11.536;2024-01-11T05:33:24;44.88;;;14.32;;
22236;SDS011;11287;48.122;11.536;2024-01-11T05:35:49;32.10;;;11.07;;
22236;SDS011;11287;48.122;11.536;2024-01-11T05:38:15;41.95;;;15.60;;
22236;SDS011;11287;48.122;11.536;2024-01-11T05:40:40;37.40;;;12.50;;
22236;SDS011;11287;48.122;11.536;2024-01-11T05:43:06;39.58;;;14.00;;
22236;SDS011;11287;48.122;11.536;2024-01-11T05:45:31;48.40;;;14.98;;
22236;SDS011;11287;48.122;11.536;2024-01-11T05:47:58;39.10;;;14.45;;
22236;SDS011;11287;48.122;11.536;2024-01-11T05:50:24;36.22;;;13.27;;
22236;SDS011;11287;48.122;11.536;2024-01-11T05:52:49;39.85;;;13.93;;
22236;SDS011;11287;48.122;11.536;2024-01-11T05:55:16;34.35;;;12.68;;
22236;SDS011;11287;48.122;11.536;2024-01-11T05:57:41;43.35;;;14.38;;
22236;SDS011;11287;48.122;11.536;2024-01-11T06:00:06;35.70;;;13.73;;
22236;SDS011;11287;48.122;11.536;2024-01-11T06:02:32;37.33;;;13.27;;
22236;SDS011;11287;48.122;11.536;2024-01-11T06:04:57;32.70;;;11.23;;
22236;SDS011;11287;48.122;11.536;2024-01-11T06:07:22;33.38;;;13.10;;
22236;SDS011;11287;48.122;11.536;2024-01-11T06:09:48;37.78;;;13.40;;
22236;SDS011;11287;48.122;11.536;2024-01-11T06:12:13;43.55;;;14.73;;
22236;SDS011;11287;48.122;11.536;2024-01-11T06:14:39;38.33;;;14.10;;
22236;SDS011;11287;48.122;11.536;2024-01-11T06:17:04;39.95;;;13.40;;
22236;SDS011;11287;48.122;11.536;2024-01-11T06:19:29;35.45;;;14.82;;
22236;SDS011;11287;48.122;11.536;2024-01-11T06:21:55;42.67;;;13.85;;
22236;SDS011;11287;48.122;11.536;2024-01-11T06:24:20;41.20;;;14.13;;
22236;SDS011;11287;48.122;11.536;2024-01-11T06:26:45;40.75;;;13.80;;
22236;SDS011;11287;48.122;11.536;2024-01-11T06:29:11;42.83;;;14.20;;
22236;SDS011;11287;48.122;11.536;2024-01-11T06:31:36;40.35;;;14.50;;
22236;SDS011;11287;48.122;11.536;2024-01-11T06:34:01;34.28;;;13.43;;
22236;SDS011;11287;48.122;11.536;2024-01-11T06:36:27;38.20;;;14.88;;
22236;SDS011;11287;48.122;11.536;2024-01-11T06:38:52;39.78;;;14.88;;
22236;SDS011;11287;48.122;11.536;2024-01-11T06:41:17;46.15;;;15.23;;
22236;SDS011;11287;48.122;11.536;2024-01-11T06:43:43;35.90;;;13.13;;
22236;SDS011;11287;48.122;11.536;2024-01-11T06:46:08;35.50;;;13.02;;
22236;SDS011;11287;48.122;11.536;2024-01-11T06:48:35;31.08;;;11.40;;
22236;SDS011;11287;48.122;11.536;2024-01-11T06:51:01;31.15;;;12.48;;
22236;SDS011;11287;48.122;11.536;2024-01-11T06:53:26;34.78;;;13.10;;
22236;SDS011;11287;48.122;11.536;2024-01-11T06:55:51;40.58;;;14.02;;
22236;SDS011;11287;48.122;11.536;2024-01-11T06:58:22;39.15;;;13.88;;
22236;SDS011;11287;48.122;11.536;2024-01-11T07:00:48;36.72;;;11.57;;
22236;SDS011;11287;48.122;11.536;2024-01-11T07:03:14;34.35;;;12.05;;
22236;SDS011;11287;48.122;11.536;2024-01-11T07:05:40;32.00;;;13.18;;
22236;SDS011;11287;48.122;11.536;2024-01-11T07:08:05;38.58;;;12.73;;
22236;SDS011;11287;48.122;11.536;2024-01-11T07:10:30;37.55;;;12.82;;
22236;SDS011;11287;48.122;11.536;2024-01-11T07:12:57;33.42;;;12.45;;
22236;SDS011;11287;48.122;11.536;2024-01-11T07:15:22;32.63;;;12.40;;
22236;SDS011;11287;48.122;11.536;2024-01-11T07:17:48;39.00;;;12.63;;
22236;SDS011;11287;48.122;11.536;2024-01-11T07:20:14;33.55;;;10.95;;
22236;SDS011;11287;48.122;11.536;2024-01-11T07:22:41;28.17;;;12.85;;
22236;SDS011;11287;48.122;11.536;2024-01-11T07:25:07;32.00;;;12.10;;
22236;SDS011;11287;48.122;11.536;2024-01-11T07:27:32;37.67;;;12.52;;
22236;SDS011;11287;48.122;11.536;2024-01-11T07:29:58;29.15;;;12.43;;
22236;SDS011;11287;48.122;11.536;2024-01-11T07:32:23;35.10;;;12.25;;
22236;SDS011;11287;48.122;11.536;2024-01-11T07:34:48;29.58;;;11.27;;
22236;SDS011;11287;48.122;11.536;2024-01-11T07:37:14;29.15;;;12.02;;
22236;SDS011;11287;48.122;11.536;2024-01-11T07:39:39;32.53;;;11.95;;
22236;SDS011;11287;48.122;11.536;2024-01-11T07:42:04;34.67;;;13.13;;
22236;SDS011;11287;48.122;11.536;2024-01-11T07:44:30;36.17;;;12.60;;
22236;SDS011;11287;48.122;11.536;2024-01-11T07:46:55;33.13;;;12.57;;
22236;SDS011;11287;48.122;11.536;2024-01-11T07:49:21;43.00;;;13.48;;
22236;SDS011;11287;48.122;11.536;2024-01-11T07:51:46;37.60;;;13.27;;
22236;SDS011;11287;48.122;11.536;2024-01-11T07:54:11;37.20;;;13.40;;
22236;SDS011;11287;48.122;11.536;2024-01-11T07:56:37;37.03;;;13.68;;
22236;SDS011;11287;48.122;11.536;2024-01-11T07:59:02;36.40;;;14.45;;
22236;SDS011;11287;48.122;11.536;2024-01-11T08:01:27;42.17;;;14.73;;
22236;SDS011;11287;48.122;11.536;2024-01-11T08:03:53;42.70;;;15.48;;
22236;SDS011;11287;48.122;11.536;2024-01-11T08:06:18;36.85;;;14.00;;
22236;SDS011;11287;48.122;11.536;2024-01-11T08:08:43;37.78;;;13.48;;
22236;SDS011;11287;48.122;11.536;2024-01-11T08:11:09;40.78;;;14.32;;
22236;SDS011;11287;48.122;11.536;2024-01-11T08:13:35;38.60;;;14.00;;
22236;SDS011;11287;48.122;11.536;2024-01-11T08:16:00;33.13;;;13.48;;
22236;SDS011;11287;48.122;11.536;2024-01-11T08:18:28;44.50;;;15.30;;
22236;SDS011;11287;48.122;11.536;2024-01-11T08:20:54;40.38;;;14.63;;
22236;SDS011;11287;48.122;11.536;2024-01-11T08:23:20;41.13;;;14.52;;
22236;SDS011;11287;48.122;11.536;2024-01-11T08:25:45;41.88;;;14.27;;
22236;SDS011;11287;48.122;11.536;2024-01-11T08:28:11;41.40;;;14.65;;
22236;SDS011;11287;48.122;11.536;2024-01-11T08:30:36;46.55;;;14.77;;
22236;SDS011;11287;48.122;11.536;2024-01-11T08:33:02;36.10;;;15.15;;
22236;SDS011;11287;48.122;11.536;2024-01-11T08:35:28;47.53;;;15.63;;
22236;SDS011;11287;48.122;11.536;2024-01-11T08:37:54;43.17;;;16.48;;
22236;SDS011;11287;48.122;11.536;2024-01-11T08:40:19;44.65;;;15.98;;
22236;SDS011;11287;48.122;11.536;2024-01-11T08:42:45;47.17;;;16.08;;
22236;SDS011;11287;48.122;11.536;2024-01-11T08:45:11;41.13;;;15.05;;
22236;SDS011;11287;48.122;11.536;2024-01-11T08:47:42;44.28;;;16.08;;
22236;SDS011;11287;48.122;11.536;2024-01-11T08:50:08;42.65;;;14.90;;
22236;SDS011;11287;48.122;11.536;2024-01-11T08:52:37;33.65;;;12.40;;
22236;SDS011;11287;48.122;11.536;2024-01-11T08:55:04;42.50;;;15.65;;
22236;SDS011;11287;48.122;11.536;2024-01-11T08:57:30;47.58;;;16.58;;
22236;SDS011;11287;48.122;11.536;2024-01-11T08:59:55;43.10;;;15.57;;
22236;SDS011;11287;48.122;11.536;2024-01-11T09:02:20;39.72;;;15.95;;
22236;SDS011;11287;48.122;11.536;2024-01-11T09:04:46;38.72;;;15.13;;
22236;SDS011;11287;48.122;11.536;2024-01-11T09:07:12;34.13;;;14.13;;
22236;SDS011;11287;48.122;11.536;2024-01-11T09:09:37;39.53;;;14.63;;
22236;SDS011;11287;48.122;11.536;2024-01-11T09:12:03;41.08;;;16.05;;
22236;SDS011;11287;48.122;11.536;2024-01-11T09:14:28;39.70;;;16.08;;
22236;SDS011;11287;48.122;11.536;2024-01-11T09:16:54;38.97;;;15.32;;
22236;SDS011;11287;48.122;11.536;2024-01-11T09:19:20;42.58;;;15.57;;
22236;SDS011;11287;48.122;11.536;2024-01-11T09:21:45;42.40;;;16.27;;
22236;SDS011;11287;48.122;11.536;2024-01-11T09:24:10;39.67;;;15.02;;
22236;SDS011;11287;48.122;11.536;2024-01-11T09:26:35;44.42;;;17.50;;
22236;SDS011;11287;48.122;11.536;2024-01-11T09:29:01;43.83;;;15.10;;
22236;SDS011;11287;48.122;11.536;2024-01-11T09:31:26;51.00;;;18.27;;
22236;SDS011;11287;48.122;11.536;2024-01-11T09:33:52;63.45;;;22.50;;
22236;SDS011;11287;48.122;11.536;2024-01-11T09:36:17;60.17;;;23.05;;
22236;SDS011;11287;48.122;11.536;2024-01-11T09:38:43;61.00;;;20.85;;
22236;SDS011;11287;48.122;11.536;2024-01-11T09:41:09;58.28;;;21.23;;
22236;SDS011;11287;48.122;11.536;2024-01-11T09:43:36;56.40;;;19.77;;
22236;SDS011;11287;48.122;11.536;2024-01-11T09:46:04;58.47;;;20.40;;
22236;SDS011;11287;48.122;11.536;2024-01-11T09:48:32;58.45;;;21.55;;
22236;SDS011;11287;48.122;11.536;2024-01-11T09:50:58;55.10;;;20.38;;
22236;SDS011;11287;48.122;11.536;2024-01-11T09:53:24;64.47;;;20.20;;
22236;SDS011;11287;48.122;11.536;2024-01-11T09:55:50;53.95;;;21.55;;
22236;SDS011;11287;48.122;11.536;2024-01-11T09:58:16;58.35;;;21.17;;
22236;SDS011;11287;48.122;11.536;2024-01-11T10:00:41;69.82;;;22.00;;
22236;SDS011;11287;48.122;11.536;2024-01-11T10:03:08;56.08;;;20.75;;
22236;SDS011;11287;48.122;11.536;2024-01-11T10:05:34;64.10;;;23.00;;
22236;SDS011;11287;48.122;11.536;2024-01-11T10:08:00;58.95;;;21.65;;
22236;SDS011;11287;48.122;11.536;2024-01-11T10:10:25;60.67;;;22.15;;
22236;SDS011;11287;48.122;11.536;2024-01-11T10:12:52;57.80;;;21.90;;
22236;SDS011;11287;48.122;11.536;2024-01-11T10:15:17;58.42;;;22.17;;
22236;SDS011;11287;48.122;11.536;2024-01-11T10:17:43;53.42;;;21.45;;
22236;SDS011;11287;48.122;11.536;2024-01-11T10:20:10;65.43;;;22.50;;
22236;SDS011;11287;48.122;11.536;2024-01-11T10:22:36;64.55;;;22.42;;
22236;SDS011;11287;48.122;11.536;2024-01-11T10:25:11;55.10;;;22.05;;
22236;SDS011;11287;48.122;11.536;2024-01-11T10:27:39;55.58;;;21.35;;
22236;SDS011;11287;48.122;11.536;2024-01-11T10:30:07;57.03;;;22.50;;
22236;SDS011;11287;48.122;11.536;2024-01-11T10:32:32;59.80;;;21.95;;
22236;SDS011;11287;48.122;11.536;2024-01-11T10:34:59;62.13;;;22.30;;
22236;SDS011;11287;48.122;11.536;2024-01-11T10:37:26;57.28;;;21.95;;
22236;SDS011;11287;48.122;11.536;2024-01-11T10:39:52;54.50;;;21.48;;
22236;SDS011;11287;48.122;11.536;2024-01-11T10:42:18;56.90;;;20.95;;
22236;SDS011;11287;48.122;11.536;2024-01-11T10:44:45;56.58;;;20.55;;
22236;SDS011;11287;48.122;11.536;2024-01-11T10:47:12;59.38;;;20.33;;
22236;SDS011;11287;48.122;11.536;2024-01-11T10:49:39;57.38;;;19.88;;
22236;SDS011;11287;48.122;11.536;2024-01-11T10:52:05;55.83;;;21.92;;
22236;SDS011;11287;48.122;11.536;2024-01-11T10:54:33;56.42;;;20.55;;
22236;SDS011;11287;48.122;11.536;2024-01-11T10:56:59;60.45;;;19.92;;
22236;SDS011;11287;48.122;11.536;2024-01-11T10:59:25;57.17;;;22.08;;
22236;SDS011;11287;48.122;11.536;2024-01-11T11:01:55;61.50;;;22.20;;
22236;SDS011;11287;48.122;11.536;2024-01-11T11:04:23;63.38;;;22.40;;
22236;SDS011;11287;48.122;11.536;2024-01-11T11:06:55;56.60;;;22.40;;
22236;SDS011;11287;48.122;11.536;2024-01-11T11:09:24;66.65;;;22.20;;
22236;SDS011;11287;48.122;11.536;2024-01-11T11:11:50;57.20;;;19.10;;
22236;SDS011;11287;48.122;11.536;2024-01-11T11:14:19;56.47;;;20.88;;
22236;SDS011;11287;48.122;11.536;2024-01-11T11:16:44;56.10;;;21.63;;
22236;SDS011;11287;48.122;11.536;2024-01-11T11:19:10;60.97;;;22.98;;
22236;SDS011;11287;48.122;11.536;2024-01-11T11:21:47;61.00;;;22.50;;
22236;SDS011;11287;48.122;11.536;2024-01-11T11:24:13;62.70;;;21.88;;
22236;SDS011;11287;48.122;11.536;2024-01-11T11:26:38;59.17;;;23.40;;
22236;SDS011;11287;48.122;11.536;2024-01-11T11:29:04;60.05;;;21.60;;
22236;SDS011;11287;48.122;11.536;2024-01-11T11:31:46;54.25;;;21.67;;
22236;SDS011;11287;48.122;11.536;2024-01-11T11:34:19;56.45;;;21.30;;
22236;SDS011;11287;48.122;11.536;2024-01-11T11:36:45;66.03;;;21.98;;
22236;SDS011;11287;48.122;11.536;2024-01-11T11:39:11;60.28;;;23.55;;
22236;SDS011;11287;48.122;11.536;2024-01-11T11:41:36;54.78;;;22.48;;
22236;SDS011;11287;48.122;11.536;2024-01-11T11:44:03;65.53;;;22.55;;
22236;SDS011;11287;48.122;11.536;2024-01-11T11:46:29;65.55;;;23.25;;
22236;SDS011;11287;48.122;11.536;2024-01-11T11:48:56;59.13;;;21.88;;
22236;SDS011;11287;48.122;11.536;2024-01-11T11:51:22;63.97;;;22.30;;
22236;SDS011;11287;48.122;11.536;2024-01-11T11:53:48;66.82;;;23.58;;
22236;SDS011;11287;48.122;11.536;2024-01-11T11:56:14;65.32;;;22.80;;
22236;SDS011;11287;48.122;11.536;2024-01-11T11:58:42;62.42;;;20.88;;
22236;SDS011;11287;48.122;11.536;2024-01-11T12:01:10;60.92;;;23.15;;
22236;SDS011;11287;48.122;11.536;2024-01-11T12:03:38;60.67;;;22.63;;
22236;SDS011;11287;48.122;11.536;2024-01-11T12:06:06;58.33;;;21.80;;
22236;SDS011;11287;48.122;11.536;2024-01-11T12:08:35;62.90;;;22.35;;
22236;SDS011;11287;48.122;11.536;2024-01-11T12:11:01;59.92;;;22.08;;
22236;SDS011;11287;48.122;11.536;2024-01-11T12:13:27;65.00;;;22.08;;
22236;SDS011;11287;48.122;11.536;2024-01-11T12:15:53;55.20;;;21.27;;
22236;SDS011;11287;48.122;11.536;2024-01-11T12:18:18;57.53;;;21.58;;
22236;SDS011;11287;48.122;11.536;2024-01-11T12:20:44;59.75;;;22.60;;
22236;SDS011;11287;48.122;11.536;2024-01-11T12:23:10;52.30;;;21.05;;
22236;SDS011;11287;48.122;11.536;2024-01-11T12:25:35;62.60;;;22.35;;
22236;SDS011;11287;48.122;11.536;2024-01-11T12:28:01;61.65;;;22.45;;
22236;SDS011;11287;48.122;11.536;2024-01-11T12:30:26;63.55;;;22.83;;
22236;SDS011;11287;48.122;11.536;2024-01-11T12:32:52;60.25;;;21.05;;
22236;SDS011;11287;48.122;11.536;2024-01-11T12:35:18;54.10;;;20.13;;
22236;SDS011;11287;48.122;11.536;2024-01-11T12:37:53;52.88;;;18.55;;
22236;SDS011;11287;48.122;11.536;2024-01-11T12:40:20;51.58;;;20.75;;
22236;SDS011;11287;48.122;11.536;2024-01-11T12:42:45;55.83;;;18.70;;
22236;SDS011;11287;48.122;11.536;2024-01-11T12:45:11;56.20;;;21.35;;
22236;SDS011;11287;48.122;11.536;2024-01-11T12:47:36;50.90;;;20.10;;
22236;SDS011;11287;48.122;11.536;2024-01-11T12:50:02;49.13;;;20.17;;
22236;SDS011;11287;48.122;11.536;2024-01-11T12:52:28;54.58;;;21.92;;
22236;SDS011;11287;48.122;11.536;2024-01-11T12:54:55;49.60;;;20.30;;
22236;SDS011;11287;48.122;11.536;2024-01-11T12:57:21;59.72;;;22.48;;
22236;SDS011;11287;48.122;11.536;2024-01-11T12:59:47;51.90;;;20.23;;
22236;SDS011;11287;48.122;11.536;2024-01-11T13:02:13;54.00;;;21.92;;
22236;SDS011;11287;48.122;11.536;2024-01-11T13:04:39;50.75;;;21.00;;
22236;SDS011;11287;48.122;11.536;2024-01-11T13:07:05;56.75;;;22.25;;
22236;SDS011;11287;48.122;11.536;2024-01-11T13:09:31;53.50;;;19.42;;
22236;SDS011;11287;48.122;11.536;2024-01-11T13:11:56;57.20;;;22.42;;
22236;SDS011;11287;48.122;11.536;2024-01-11T13:14:22;59.83;;;22.05;;
22236;SDS011;11287;48.122;11.536;2024-01-11T13:16:48;55.42;;;21.17;;
22236;SDS011;11287;48.122;11.536;2024-01-11T13:19:13;54.00;;;20.58;;
22236;SDS011;11287;48.122;11.536;2024-01-11T13:21:39;64.10;;;22.77;;
22236;SDS011;11287;48.122;11.536;2024-01-11T13:24:04;66.60;;;25.85;;
22236;SDS011;11287;48.122;11.536;2024-01-11T13:26:30;51.47;;;21.85;;
22236;SDS011;11287;48.122;11.536;2024-01-11T13:28:55;65.65;;;23.95;;
22236;SDS011;11287;48.122;11.536;2024-01-11T13:31:21;54.08;;;22.92;;
22236;SDS011;11287;48.122;11.536;2024-01-11T13:33:46;61.45;;;23.25;;
22236;SDS011;11287;48.122;11.536;2024-01-11T13:36:11;52.60;;;22.05;;
22236;SDS011;11287;48.122;11.536;2024-01-11T13:38:37;56.50;;;21.83;;
22236;SDS011;11287;48.122;11.536;2024-01-11T13:41:02;61.92;;;23.10;;
22236;SDS011;11287;48.122;11.536;2024-01-11T13:43:28;58.15;;;23.48;;
22236;SDS011;11287;48.122;11.536;2024-01-11T13:45:53;51.83;;;21.52;;
22236;SDS011;11287;48.122;11.536;2024-01-11T13:48:20;56.33;;;22.20;;
22236;SDS011;11287;48.122;11.536;2024-01-11T13:50:45;54.92;;;22.02;;
22236;SDS011;11287;48.122;11.536;2024-01-11T13:53:10;53.08;;;21.25;;
22236;SDS011;11287;48.122;11.536;2024-01-11T13:55:35;61.63;;;21.42;;
22236;SDS011;11287;48.122;11.536;2024-01-11T13:58:04;57.95;;;21.33;;
22236;SDS011;11287;48.122;11.536;2024-01-11T14:00:30;55.28;;;21.90;;